sensor_id;sensor_type;location;lat;lon;timestamp;P1;durP1;ratioP1;P2;durP2;ratioP2
51010;SDS011;37038;50.182;8.624;2024-03-08T00:01:48;40.63;;;27.23;;
51010;SDS011;37038;50.182;8.624;2024-03-08T00:08:49;44.30;;;28.50;;
51010;SDS011;37038;50.182;8.624;2024-03-08T00:12:00;43.72;;;28.90;;
51010;SDS011;37038;50.182;8.624;2024-03-08T00:18:58;42.22;;;28.77;;
51010;SDS011;37038;50.182;8.624;2024-03-08T00:21:46;43.58;;;28.58;;
51010;SDS011;37038;50.182;8.624;2024-03-08T00:24:38;43.85;;;28.65;;
51010;SDS011;37038;50.182;8.624;2024-03-08T00:27:28;40.63;;;27.50;;
51010;SDS011;37038;50.182;8.624;2024-03-08T00:30:30;43.55;;;28.67;;
51010;SDS011;37038;50.182;8.624;2024-03-08T00:33:27;43.13;;;27.85;;
51010;SDS011;37038;50.182;8.624;2024-03-08T00:36:16;42.53;;;29.27;;
51010;SDS011;37038;50.182;8.624;2024-03-08T00:39:10;43.53;;;28.58;;
51010;SDS011;37038;50.182;8.624;2024-03-08T00:42:03;42.05;;;29.90;;
51010;SDS011;37038;50.182;8.624;2024-03-08T00:45:06;44.70;;;28.98;;
51010;SDS011;37038;50.182;8.624;2024-03-08T00:48:10;46.83;;;27.23;;
51010;SDS011;37038;50.182;8.624;2024-03-08T00:51:02;47.05;;;29.73;;
51010;SDS011;37038;50.182;8.624;2024-03-08T00:53:52;43.15;;;27.92;;
51010;SDS011;37038;50.182;8.624;2024-03-08T00:56:59;45.45;;;28.48;;
51010;SDS011;37038;50.182;8.624;2024-03-08T01:00:04;47.15;;;29.13;;
51010;SDS011;37038;50.182;8.624;2024-03-08T01:02:59;41.72;;;29.05;;
51010;SDS011;37038;50.182;8.624;2024-03-08T01:05:54;40.08;;;27.52;;
51010;SDS011;37038;50.182;8.624;2024-03-08T01:08:43;39.97;;;28.70;;
51010;SDS011;37038;50.182;8.624;2024-03-08T01:11:34;46.53;;;27.58;;
51010;SDS011;37038;50.182;8.624;2024-03-08T01:14:24;44.92;;;27.88;;
51010;SDS011;37038;50.182;8.624;2024-03-08T01:17:21;42.30;;;28.67;;
51010;SDS011;37038;50.182;8.624;2024-03-08T01:20:15;44.90;;;27.88;;
51010;SDS011;37038;50.182;8.624;2024-03-08T01:23:06;45.97;;;28.05;;
51010;SDS011;37038;50.182;8.624;2024-03-08T01:25:59;45.80;;;28.85;;
51010;SDS011;37038;50.182;8.624;2024-03-08T01:28:49;44.85;;;29.42;;
51010;SDS011;37038;50.182;8.624;2024-03-08T01:31:42;43.88;;;29.05;;
51010;SDS011;37038;50.182;8.624;2024-03-08T01:34:35;45.75;;;28.23;;
51010;SDS011;37038;50.182;8.624;2024-03-08T01:37:30;43.97;;;29.05;;
51010;SDS011;37038;50.182;8.624;2024-03-08T01:40:21;44.13;;;28.92;;
51010;SDS011;37038;50.182;8.624;2024-03-08T01:43:21;47.75;;;29.25;;
51010;SDS011;37038;50.182;8.624;2024-03-08T01:46:16;41.05;;;26.65;;
51010;SDS011;37038;50.182;8.624;2024-03-08T01:49:11;46.83;;;29.17;;
51010;SDS011;37038;50.182;8.624;2024-03-08T01:51:51;44.10;;;28.95;;
51010;SDS011;37038;50.182;8.624;2024-03-08T01:54:40;44.55;;;27.63;;
51010;SDS011;37038;50.182;8.624;2024-03-08T01:57:28;46.30;;;29.40;;
51010;SDS011;37038;50.182;8.624;2024-03-08T02:00:18;46.90;;;29.63;;
51010;SDS011;37038;50.182;8.624;2024-03-08T02:03:11;42.97;;;28.40;;
51010;SDS011;37038;50.182;8.624;2024-03-08T02:06:01;47.65;;;29.15;;
51010;SDS011;37038;50.182;8.624;2024-03-08T02:08:52;49.90;;;30.20;;
51010;SDS011;37038;50.182;8.624;2024-03-08T02:11:41;45.20;;;29.13;;
51010;SDS011;37038;50.182;8.624;2024-03-08T02:14:29;46.28;;;29.17;;
51010;SDS011;37038;50.182;8.624;2024-03-08T02:17:21;51.53;;;29.15;;
51010;SDS011;37038;50.182;8.624;2024-03-08T02:20:14;46.58;;;29.05;;
51010;SDS011;37038;50.182;8.624;2024-03-08T02:23:10;43.63;;;28.42;;
51010;SDS011;37038;50.182;8.624;2024-03-08T02:26:01;46.50;;;29.88;;
51010;SDS011;37038;50.182;8.624;2024-03-08T02:28:51;45.25;;;29.80;;
51010;SDS011;37038;50.182;8.624;2024-03-08T02:31:41;47.08;;;29.88;;
51010;SDS011;37038;50.182;8.624;2024-03-08T02:34:29;49.42;;;29.42;;
51010;SDS011;37038;50.182;8.624;2024-03-08T02:37:18;46.83;;;29.88;;
51010;SDS011;37038;50.182;8.624;2024-03-08T02:40:12;47.42;;;29.40;;
51010;SDS011;37038;50.182;8.624;2024-03-08T02:43:00;46.22;;;30.05;;
51010;SDS011;37038;50.182;8.624;2024-03-08T02:45:48;47.10;;;30.15;;
51010;SDS011;37038;50.182;8.624;2024-03-08T02:48:39;50.90;;;30.65;;
51010;SDS011;37038;50.182;8.624;2024-03-08T02:51:30;50.10;;;31.38;;
51010;SDS011;37038;50.182;8.624;2024-03-08T02:54:25;51.65;;;33.35;;
51010;SDS011;37038;50.182;8.624;2024-03-08T02:57:17;48.55;;;31.15;;
51010;SDS011;37038;50.182;8.624;2024-03-08T03:00:06;48.78;;;31.23;;
51010;SDS011;37038;50.182;8.624;2024-03-08T03:02:59;48.85;;;31.95;;
51010;SDS011;37038;50.182;8.624;2024-03-08T03:05:50;48.80;;;31.95;;
51010;SDS011;37038;50.182;8.624;2024-03-08T03:08:43;51.63;;;31.80;;
51010;SDS011;37038;50.182;8.624;2024-03-08T03:11:33;49.00;;;31.15;;
51010;SDS011;37038;50.182;8.624;2024-03-08T03:14:28;45.55;;;29.85;;
51010;SDS011;37038;50.182;8.624;2024-03-08T03:17:18;47.55;;;31.23;;
51010;SDS011;37038;50.182;8.624;2024-03-08T03:20:08;53.63;;;32.92;;
51010;SDS011;37038;50.182;8.624;2024-03-08T03:22:57;47.13;;;30.75;;
51010;SDS011;37038;50.182;8.624;2024-03-08T03:25:44;50.60;;;30.65;;
51010;SDS011;37038;50.182;8.624;2024-03-08T03:28:33;49.90;;;32.75;;
51010;SDS011;37038;50.182;8.624;2024-03-08T03:31:26;49.15;;;31.33;;
51010;SDS011;37038;50.182;8.624;2024-03-08T03:34:14;47.45;;;29.67;;
51010;SDS011;37038;50.182;8.624;2024-03-08T03:37:06;55.30;;;31.85;;
51010;SDS011;37038;50.182;8.624;2024-03-08T03:40:00;53.38;;;32.17;;
51010;SDS011;37038;50.182;8.624;2024-03-08T03:42:49;50.83;;;31.80;;
51010;SDS011;37038;50.182;8.624;2024-03-08T03:45:39;48.85;;;30.80;;
51010;SDS011;37038;50.182;8.624;2024-03-08T03:48:29;52.50;;;32.08;;
51010;SDS011;37038;50.182;8.624;2024-03-08T03:51:22;53.28;;;31.73;;
51010;SDS011;37038;50.182;8.624;2024-03-08T03:54:21;53.88;;;33.10;;
51010;SDS011;37038;50.182;8.624;2024-03-08T03:57:09;56.75;;;31.95;;
51010;SDS011;37038;50.182;8.624;2024-03-08T04:00:10;51.67;;;32.25;;
51010;SDS011;37038;50.182;8.624;2024-03-08T04:03:15;53.55;;;32.08;;
51010;SDS011;37038;50.182;8.624;2024-03-08T04:06:07;53.50;;;31.48;;
51010;SDS011;37038;50.182;8.624;2024-03-08T04:08:58;53.97;;;32.13;;
51010;SDS011;37038;50.182;8.624;2024-03-08T04:11:47;53.92;;;32.80;;
51010;SDS011;37038;50.182;8.624;2024-03-08T04:14:35;55.22;;;32.47;;
51010;SDS011;37038;50.182;8.624;2024-03-08T04:17:23;57.88;;;34.33;;
51010;SDS011;37038;50.182;8.624;2024-03-08T04:20:14;54.97;;;34.05;;
51010;SDS011;37038;50.182;8.624;2024-03-08T04:23:02;53.67;;;32.97;;
51010;SDS011;37038;50.182;8.624;2024-03-08T04:25:51;54.00;;;33.97;;
51010;SDS011;37038;50.182;8.624;2024-03-08T04:28:42;54.03;;;33.08;;
51010;SDS011;37038;50.182;8.624;2024-03-08T04:34:21;53.97;;;31.08;;
51010;SDS011;37038;50.182;8.624;2024-03-08T04:37:08;55.63;;;33.53;;
51010;SDS011;37038;50.182;8.624;2024-03-08T04:39:58;53.90;;;33.03;;
51010;SDS011;37038;50.182;8.624;2024-03-08T04:42:51;51.95;;;32.45;;
51010;SDS011;37038;50.182;8.624;2024-03-08T04:45:39;59.03;;;34.83;;
51010;SDS011;37038;50.182;8.624;2024-03-08T04:48:29;56.42;;;34.28;;
51010;SDS011;37038;50.182;8.624;2024-03-08T04:51:19;52.40;;;33.75;;
51010;SDS011;37038;50.182;8.624;2024-03-08T04:54:09;60.83;;;34.13;;
51010;SDS011;37038;50.182;8.624;2024-03-08T04:57:00;54.85;;;33.63;;
51010;SDS011;37038;50.182;8.624;2024-03-08T04:59:56;55.83;;;34.60;;
51010;SDS011;37038;50.182;8.624;2024-03-08T05:02:49;54.40;;;34.88;;
51010;SDS011;37038;50.182;8.624;2024-03-08T05:05:44;56.55;;;35.10;;
51010;SDS011;37038;50.182;8.624;2024-03-08T05:08:35;54.30;;;34.05;;
51010;SDS011;37038;50.182;8.624;2024-03-08T05:11:25;56.63;;;34.53;;
51010;SDS011;37038;50.182;8.624;2024-03-08T05:14:18;61.38;;;34.30;;
51010;SDS011;37038;50.182;8.624;2024-03-08T05:17:13;59.47;;;36.35;;
51010;SDS011;37038;50.182;8.624;2024-03-08T05:20:08;66.28;;;35.17;;
51010;SDS011;37038;50.182;8.624;2024-03-08T05:22:59;56.92;;;34.55;;
51010;SDS011;37038;50.182;8.624;2024-03-08T05:25:53;63.20;;;35.63;;
51010;SDS011;37038;50.182;8.624;2024-03-08T05:28:40;65.75;;;38.20;;
51010;SDS011;37038;50.182;8.624;2024-03-08T05:31:31;65.50;;;37.25;;
51010;SDS011;37038;50.182;8.624;2024-03-08T05:34:49;58.47;;;35.40;;
51010;SDS011;37038;50.182;8.624;2024-03-08T05:37:42;69.15;;;38.80;;
51010;SDS011;37038;50.182;8.624;2024-03-08T05:40:30;60.75;;;36.38;;
51010;SDS011;37038;50.182;8.624;2024-03-08T05:43:21;64.88;;;37.33;;
51010;SDS011;37038;50.182;8.624;2024-03-08T05:46:15;65.45;;;36.58;;
51010;SDS011;37038;50.182;8.624;2024-03-08T05:49:05;64.28;;;35.30;;
51010;SDS011;37038;50.182;8.624;2024-03-08T05:51:59;58.97;;;35.97;;
51010;SDS011;37038;50.182;8.624;2024-03-08T05:54:55;58.75;;;35.33;;
51010;SDS011;37038;50.182;8.624;2024-03-08T05:57:43;58.75;;;36.00;;
51010;SDS011;37038;50.182;8.624;2024-03-08T06:00:42;66.35;;;38.70;;
51010;SDS011;37038;50.182;8.624;2024-03-08T06:03:37;60.70;;;36.35;;
51010;SDS011;37038;50.182;8.624;2024-03-08T06:06:35;65.93;;;38.20;;
51010;SDS011;37038;50.182;8.624;2024-03-08T06:09:25;67.07;;;36.60;;
51010;SDS011;37038;50.182;8.624;2024-03-08T06:12:13;62.25;;;36.80;;
51010;SDS011;37038;50.182;8.624;2024-03-08T06:15:14;64.05;;;35.83;;
51010;SDS011;37038;50.182;8.624;2024-03-08T06:18:09;60.90;;;36.22;;
51010;SDS011;37038;50.182;8.624;2024-03-08T06:21:18;64.40;;;37.95;;
51010;SDS011;37038;50.182;8.624;2024-03-08T06:24:20;65.70;;;35.42;;
51010;SDS011;37038;50.182;8.624;2024-03-08T06:27:23;59.03;;;36.05;;
51010;SDS011;37038;50.182;8.624;2024-03-08T06:30:11;56.08;;;34.60;;
51010;SDS011;37038;50.182;8.624;2024-03-08T06:33:24;61.22;;;35.90;;
51010;SDS011;37038;50.182;8.624;2024-03-08T06:36:29;60.45;;;35.28;;
51010;SDS011;37038;50.182;8.624;2024-03-08T06:52:19;52.10;;;35.95;;
51010;SDS011;37038;50.182;8.624;2024-03-08T06:55:34;48.20;;;33.22;;
51010;SDS011;37038;50.182;8.624;2024-03-08T06:58:33;53.58;;;33.78;;
51010;SDS011;37038;50.182;8.624;2024-03-08T07:01:25;49.92;;;32.63;;
51010;SDS011;37038;50.182;8.624;2024-03-08T07:04:25;43.83;;;32.67;;
51010;SDS011;37038;50.182;8.624;2024-03-08T07:07:38;46.83;;;32.22;;
51010;SDS011;37038;50.182;8.624;2024-03-08T07:10:50;43.88;;;31.17;;
51010;SDS011;37038;50.182;8.624;2024-03-08T07:13:40;40.92;;;30.70;;
51010;SDS011;37038;50.182;8.624;2024-03-08T07:16:48;44.70;;;32.25;;
51010;SDS011;37038;50.182;8.624;2024-03-08T07:19:58;46.03;;;33.35;;
51010;SDS011;37038;50.182;8.624;2024-03-08T07:23:12;44.40;;;31.35;;
51010;SDS011;37038;50.182;8.624;2024-03-08T07:26:27;40.42;;;30.67;;
51010;SDS011;37038;50.182;8.624;2024-03-08T07:33:36;39.95;;;29.15;;
51010;SDS011;37038;50.182;8.624;2024-03-08T07:36:45;44.20;;;30.40;;
51010;SDS011;37038;50.182;8.624;2024-03-08T07:40:07;38.03;;;28.90;;
51010;SDS011;37038;50.182;8.624;2024-03-08T07:43:28;39.47;;;28.98;;
51010;SDS011;37038;50.182;8.624;2024-03-08T07:46:27;44.75;;;28.27;;
51010;SDS011;37038;50.182;8.624;2024-03-08T07:49:31;50.30;;;30.27;;
51010;SDS011;37038;50.182;8.624;2024-03-08T07:52:42;40.13;;;28.77;;
51010;SDS011;37038;50.182;8.624;2024-03-08T07:59:41;49.07;;;29.57;;
51010;SDS011;37038;50.182;8.624;2024-03-08T08:02:33;37.50;;;27.63;;
51010;SDS011;37038;50.182;8.624;2024-03-08T08:05:32;36.78;;;27.02;;
51010;SDS011;37038;50.182;8.624;2024-03-08T08:08:26;39.47;;;28.27;;
51010;SDS011;37038;50.182;8.624;2024-03-08T08:11:21;34.85;;;27.85;;
51010;SDS011;37038;50.182;8.624;2024-03-08T08:14:13;37.60;;;27.70;;
51010;SDS011;37038;50.182;8.624;2024-03-08T08:17:14;39.45;;;30.27;;
51010;SDS011;37038;50.182;8.624;2024-03-08T08:20:29;39.55;;;29.02;;
51010;SDS011;37038;50.182;8.624;2024-03-08T08:27:47;38.65;;;29.42;;
51010;SDS011;37038;50.182;8.624;2024-03-08T08:30:52;38.38;;;28.48;;
51010;SDS011;37038;50.182;8.624;2024-03-08T08:33:51;41.00;;;29.57;;
51010;SDS011;37038;50.182;8.624;2024-03-08T08:37:21;39.63;;;29.95;;
51010;SDS011;37038;50.182;8.624;2024-03-08T08:40:55;34.55;;;27.50;;
51010;SDS011;37038;50.182;8.624;2024-03-08T08:44:14;36.58;;;27.83;;
51010;SDS011;37038;50.182;8.624;2024-03-08T08:51:50;37.53;;;29.40;;
51010;SDS011;37038;50.182;8.624;2024-03-08T08:55:03;36.72;;;28.80;;
51010;SDS011;37038;50.182;8.624;2024-03-08T08:58:26;34.70;;;28.25;;
51010;SDS011;37038;50.182;8.624;2024-03-08T09:01:38;37.47;;;28.10;;
51010;SDS011;37038;50.182;8.624;2024-03-08T09:05:09;37.38;;;28.40;;
51010;SDS011;37038;50.182;8.624;2024-03-08T09:09:08;35.55;;;26.70;;
51010;SDS011;37038;50.182;8.624;2024-03-08T09:20:30;29.52;;;24.83;;
51010;SDS011;37038;50.182;8.624;2024-03-08T09:23:44;32.45;;;25.23;;
51010;SDS011;37038;50.182;8.624;2024-03-08T09:26:42;33.78;;;25.83;;
51010;SDS011;37038;50.182;8.624;2024-03-08T09:29:36;32.50;;;24.83;;
51010;SDS011;37038;50.182;8.624;2024-03-08T09:32:43;29.48;;;24.65;;
51010;SDS011;37038;50.182;8.624;2024-03-08T09:38:58;32.10;;;24.27;;
51010;SDS011;37038;50.182;8.624;2024-03-08T09:41:55;33.45;;;24.30;;
51010;SDS011;37038;50.182;8.624;2024-03-08T09:45:10;31.10;;;23.35;;
51010;SDS011;37038;50.182;8.624;2024-03-08T09:48:46;31.90;;;24.52;;
51010;SDS011;37038;50.182;8.624;2024-03-08T09:51:54;32.75;;;24.60;;
51010;SDS011;37038;50.182;8.624;2024-03-08T09:55:09;30.90;;;24.23;;
51010;SDS011;37038;50.182;8.624;2024-03-08T09:59:11;31.45;;;23.08;;
51010;SDS011;37038;50.182;8.624;2024-03-08T10:01:55;31.17;;;23.38;;
51010;SDS011;37038;50.182;8.624;2024-03-08T10:05:33;28.02;;;22.63;;
51010;SDS011;37038;50.182;8.624;2024-03-08T10:09:06;28.13;;;23.48;;
51010;SDS011;37038;50.182;8.624;2024-03-08T10:17:05;25.35;;;22.23;;
51010;SDS011;37038;50.182;8.624;2024-03-08T10:27:40;25.08;;;21.63;;
51010;SDS011;37038;50.182;8.624;2024-03-08T10:34:53;24.52;;;20.02;;
51010;SDS011;37038;50.182;8.624;2024-03-08T10:50:21;20.92;;;18.20;;
51010;SDS011;37038;50.182;8.624;2024-03-08T10:53:41;23.55;;;19.95;;
51010;SDS011;37038;50.182;8.624;2024-03-08T10:56:35;23.45;;;19.52;;
51010;SDS011;37038;50.182;8.624;2024-03-08T10:59:47;20.95;;;18.15;;
51010;SDS011;37038;50.182;8.624;2024-03-08T11:02:39;21.75;;;18.75;;
51010;SDS011;37038;50.182;8.624;2024-03-08T11:05:40;22.40;;;18.77;;
51010;SDS011;37038;50.182;8.624;2024-03-08T11:08:39;23.80;;;17.75;;
51010;SDS011;37038;50.182;8.624;2024-03-08T11:11:45;21.88;;;17.90;;
51010;SDS011;37038;50.182;8.624;2024-03-08T11:14:46;18.23;;;15.50;;
51010;SDS011;37038;50.182;8.624;2024-03-08T11:17:44;18.88;;;16.88;;
51010;SDS011;37038;50.182;8.624;2024-03-08T11:20:37;20.40;;;15.70;;
51010;SDS011;37038;50.182;8.624;2024-03-08T11:23:30;17.05;;;14.88;;
51010;SDS011;37038;50.182;8.624;2024-03-08T11:26:27;18.10;;;15.95;;
51010;SDS011;37038;50.182;8.624;2024-03-08T11:32:19;16.88;;;14.98;;
51010;SDS011;37038;50.182;8.624;2024-03-08T11:35:21;22.10;;;18.02;;
51010;SDS011;37038;50.182;8.624;2024-03-08T11:38:38;25.13;;;17.55;;
51010;SDS011;37038;50.182;8.624;2024-03-08T11:41:34;19.65;;;16.15;;
51010;SDS011;37038;50.182;8.624;2024-03-08T11:44:54;19.80;;;16.45;;
51010;SDS011;37038;50.182;8.624;2024-03-08T11:47:46;19.58;;;15.77;;
51010;SDS011;37038;50.182;8.624;2024-03-08T11:50:45;19.30;;;16.35;;
51010;SDS011;37038;50.182;8.624;2024-03-08T11:53:34;20.13;;;15.23;;
51010;SDS011;37038;50.182;8.624;2024-03-08T11:56:33;19.17;;;15.27;;
51010;SDS011;37038;50.182;8.624;2024-03-08T12:06:52;20.65;;;15.15;;
51010;SDS011;37038;50.182;8.624;2024-03-08T12:14:43;17.05;;;14.52;;
51010;SDS011;37038;50.182;8.624;2024-03-08T12:18:36;20.73;;;15.30;;
51010;SDS011;37038;50.182;8.624;2024-03-08T12:29:59;17.60;;;15.45;;
51010;SDS011;37038;50.182;8.624;2024-03-08T12:33:17;18.27;;;15.57;;
51010;SDS011;37038;50.182;8.624;2024-03-08T12:36:40;20.05;;;15.82;;
51010;SDS011;37038;50.182;8.624;2024-03-08T12:40:12;21.50;;;15.43;;
51010;SDS011;37038;50.182;8.624;2024-03-08T12:43:43;19.02;;;15.77;;
51010;SDS011;37038;50.182;8.624;2024-03-08T12:47:13;22.60;;;16.33;;
51010;SDS011;37038;50.182;8.624;2024-03-08T12:50:55;19.50;;;15.38;;
51010;SDS011;37038;50.182;8.624;2024-03-08T12:54:33;21.30;;;16.67;;
51010;SDS011;37038;50.182;8.624;2024-03-08T12:57:51;19.35;;;15.77;;
51010;SDS011;37038;50.182;8.624;2024-03-08T13:01:20;20.20;;;16.10;;
51010;SDS011;37038;50.182;8.624;2024-03-08T13:08:53;20.45;;;16.05;;
51010;SDS011;37038;50.182;8.624;2024-03-08T13:12:47;20.35;;;16.13;;
51010;SDS011;37038;50.182;8.624;2024-03-08T13:19:58;22.17;;;17.52;;
51010;SDS011;37038;50.182;8.624;2024-03-08T13:23:40;19.23;;;16.77;;
51010;SDS011;37038;50.182;8.624;2024-03-08T13:35:22;23.83;;;17.10;;
51010;SDS011;37038;50.182;8.624;2024-03-08T13:38:59;24.95;;;17.33;;
51010;SDS011;37038;50.182;8.624;2024-03-08T13:43:02;23.02;;;16.92;;
51010;SDS011;37038;50.182;8.624;2024-03-08T14:51:47;21.33;;;17.60;;
51010;SDS011;37038;50.182;8.624;2024-03-08T15:00:05;23.77;;;17.48;;
51010;SDS011;37038;50.182;8.624;2024-03-08T15:11:22;23.77;;;17.40;;
51010;SDS011;37038;50.182;8.624;2024-03-08T15:27:28;24.60;;;18.02;;
51010;SDS011;37038;50.182;8.624;2024-03-08T15:46:07;22.45;;;17.25;;
51010;SDS011;37038;50.182;8.624;2024-03-08T16:19:10;19.75;;;14.15;;
51010;SDS011;37038;50.182;8.624;2024-03-08T16:22:38;18.15;;;13.75;;
51010;SDS011;37038;50.182;8.624;2024-03-08T16:25:54;18.05;;;14.15;;
51010;SDS011;37038;50.182;8.624;2024-03-08T16:32:04;17.05;;;12.80;;
51010;SDS011;37038;50.182;8.624;2024-03-08T16:35:06;21.63;;;14.48;;
51010;SDS011;37038;50.182;8.624;2024-03-08T16:38:23;17.80;;;14.02;;
51010;SDS011;37038;50.182;8.624;2024-03-08T16:42:13;19.38;;;14.05;;
51010;SDS011;37038;50.182;8.624;2024-03-08T16:45:17;18.77;;;13.88;;
51010;SDS011;37038;50.182;8.624;2024-03-08T16:48:55;18.27;;;13.45;;
51010;SDS011;37038;50.182;8.624;2024-03-08T16:52:27;16.42;;;13.30;;
51010;SDS011;37038;50.182;8.624;2024-03-08T16:55:23;18.80;;;15.10;;
51010;SDS011;37038;50.182;8.624;2024-03-08T16:58:50;21.83;;;14.90;;
51010;SDS011;37038;50.182;8.624;2024-03-08T17:01:53;21.58;;;15.52;;
51010;SDS011;37038;50.182;8.624;2024-03-08T17:05:33;20.42;;;14.50;;
51010;SDS011;37038;50.182;8.624;2024-03-08T17:24:59;23.02;;;14.82;;
51010;SDS011;37038;50.182;8.624;2024-03-08T17:30:55;23.30;;;14.25;;
51010;SDS011;37038;50.182;8.624;2024-03-08T17:34:26;20.25;;;14.00;;
51010;SDS011;37038;50.182;8.624;2024-03-08T17:37:37;21.48;;;14.90;;
51010;SDS011;37038;50.182;8.624;2024-03-08T17:45:10;23.45;;;15.77;;
51010;SDS011;37038;50.182;8.624;2024-03-08T17:48:03;20.88;;;15.40;;
51010;SDS011;37038;50.182;8.624;2024-03-08T17:53:59;25.17;;;16.55;;
51010;SDS011;37038;50.182;8.624;2024-03-08T17:57:20;20.25;;;15.20;;
51010;SDS011;37038;50.182;8.624;2024-03-08T18:00:32;23.77;;;15.27;;
51010;SDS011;37038;50.182;8.624;2024-03-08T18:03:40;22.10;;;15.15;;
51010;SDS011;37038;50.182;8.624;2024-03-08T18:12:01;25.67;;;15.82;;
51010;SDS011;37038;50.182;8.624;2024-03-08T18:25:23;24.58;;;17.85;;
51010;SDS011;37038;50.182;8.624;2024-03-08T18:28:46;25.75;;;17.58;;
51010;SDS011;37038;50.182;8.624;2024-03-08T18:31:59;25.88;;;18.17;;
51010;SDS011;37038;50.182;8.624;2024-03-08T18:34:52;26.30;;;19.50;;
51010;SDS011;37038;50.182;8.624;2024-03-08T18:39:00;33.17;;;19.90;;
51010;SDS011;37038;50.182;8.624;2024-03-08T18:55:36;30.17;;;20.35;;
51010;SDS011;37038;50.182;8.624;2024-03-08T18:59:14;32.05;;;20.50;;
51010;SDS011;37038;50.182;8.624;2024-03-08T19:02:35;31.67;;;21.67;;
51010;SDS011;37038;50.182;8.624;2024-03-08T19:06:12;32.75;;;21.92;;
51010;SDS011;37038;50.182;8.624;2024-03-08T19:09:59;34.00;;;22.13;;
51010;SDS011;37038;50.182;8.624;2024-03-08T19:13:17;32.80;;;21.00;;
51010;SDS011;37038;50.182;8.624;2024-03-08T19:16:10;36.65;;;22.58;;
51010;SDS011;37038;50.182;8.624;2024-03-08T19:19:11;33.70;;;21.60;;
51010;SDS011;37038;50.182;8.624;2024-03-08T19:22:11;32.40;;;20.85;;
51010;SDS011;37038;50.182;8.624;2024-03-08T19:25:21;30.08;;;20.90;;
51010;SDS011;37038;50.182;8.624;2024-03-08T19:28:38;29.27;;;19.80;;
51010;SDS011;37038;50.182;8.624;2024-03-08T19:31:50;32.80;;;19.98;;
51010;SDS011;37038;50.182;8.624;2024-03-08T19:35:03;28.83;;;19.80;;
51010;SDS011;37038;50.182;8.624;2024-03-08T19:38:11;28.15;;;19.50;;
51010;SDS011;37038;50.182;8.624;2024-03-08T19:41:11;31.38;;;19.73;;
51010;SDS011;37038;50.182;8.624;2024-03-08T19:44:10;26.20;;;18.23;;
51010;SDS011;37038;50.182;8.624;2024-03-08T19:47:30;29.13;;;18.67;;
51010;SDS011;37038;50.182;8.624;2024-03-08T19:50:58;29.48;;;17.90;;
51010;SDS011;37038;50.182;8.624;2024-03-08T19:54:29;28.73;;;19.48;;
51010;SDS011;37038;50.182;8.624;2024-03-08T19:57:31;27.60;;;18.88;;
51010;SDS011;37038;50.182;8.624;2024-03-08T20:01:26;27.77;;;18.98;;
51010;SDS011;37038;50.182;8.624;2024-03-08T20:04:21;28.33;;;19.80;;
51010;SDS011;37038;50.182;8.624;2024-03-08T20:11:04;26.25;;;18.38;;
51010;SDS011;37038;50.182;8.624;2024-03-08T20:14:14;28.95;;;19.80;;
51010;SDS011;37038;50.182;8.624;2024-03-08T20:17:11;25.13;;;17.67;;
51010;SDS011;37038;50.182;8.624;2024-03-08T20:20:20;28.30;;;18.52;;
51010;SDS011;37038;50.182;8.624;2024-03-08T20:24:11;25.65;;;17.55;;
51010;SDS011;37038;50.182;8.624;2024-03-08T20:27:31;28.65;;;17.75;;
51010;SDS011;37038;50.182;8.624;2024-03-08T20:30:38;27.92;;;19.40;;
51010;SDS011;37038;50.182;8.624;2024-03-08T20:33:53;29.42;;;18.10;;
51010;SDS011;37038;50.182;8.624;2024-03-08T20:37:02;27.45;;;19.10;;
51010;SDS011;37038;50.182;8.624;2024-03-08T20:40:06;24.88;;;16.98;;
51010;SDS011;37038;50.182;8.624;2024-03-08T20:43:08;27.00;;;19.08;;
51010;SDS011;37038;50.182;8.624;2024-03-08T20:46:24;27.25;;;18.35;;
51010;SDS011;37038;50.182;8.624;2024-03-08T20:49:57;26.25;;;17.92;;
51010;SDS011;37038;50.182;8.624;2024-03-08T20:53:49;24.58;;;17.75;;
51010;SDS011;37038;50.182;8.624;2024-03-08T20:57:44;28.52;;;18.17;;
51010;SDS011;37038;50.182;8.624;2024-03-08T21:37:53;24.52;;;17.15;;
51010;SDS011;37038;50.182;8.624;2024-03-08T21:41:11;27.52;;;18.45;;
51010;SDS011;37038;50.182;8.624;2024-03-08T21:44:11;24.90;;;18.55;;
51010;SDS011;37038;50.182;8.624;2024-03-08T21:47:14;26.38;;;18.05;;
51010;SDS011;37038;50.182;8.624;2024-03-08T21:50:37;28.60;;;18.65;;
51010;SDS011;37038;50.182;8.624;2024-03-08T21:53:46;27.20;;;18.33;;
51010;SDS011;37038;50.182;8.624;2024-03-08T21:56:33;24.38;;;17.08;;
51010;SDS011;37038;50.182;8.624;2024-03-08T21:59:32;24.02;;;17.67;;
51010;SDS011;37038;50.182;8.624;2024-03-08T22:02:50;24.73;;;17.88;;
51010;SDS011;37038;50.182;8.624;2024-03-08T22:05:51;24.63;;;17.75;;
51010;SDS011;37038;50.182;8.624;2024-03-08T22:08:59;26.27;;;18.92;;
51010;SDS011;37038;50.182;8.624;2024-03-08T22:12:04;26.90;;;18.92;;
51010;SDS011;37038;50.182;8.624;2024-03-08T22:15:02;28.05;;;17.45;;
51010;SDS011;37038;50.182;8.624;2024-03-08T22:18:07;28.02;;;18.90;;
51010;SDS011;37038;50.182;8.624;2024-03-08T22:21:15;25.67;;;18.33;;
51010;SDS011;37038;50.182;8.624;2024-03-08T22:24:08;25.40;;;18.08;;
51010;SDS011;37038;50.182;8.624;2024-03-08T22:30:44;25.08;;;18.60;;
51010;SDS011;37038;50.182;8.624;2024-03-08T22:33:49;27.98;;;19.42;;
51010;SDS011;37038;50.182;8.624;2024-03-08T22:36:42;27.42;;;18.55;;
51010;SDS011;37038;50.182;8.624;2024-03-08T22:39:43;29.52;;;20.98;;
51010;SDS011;37038;50.182;8.624;2024-03-08T22:48:23;31.65;;;21.23;;
51010;SDS011;37038;50.182;8.624;2024-03-08T22:51:32;31.38;;;20.33;;
51010;SDS011;37038;50.182;8.624;2024-03-08T22:54:24;32.70;;;20.65;;
51010;SDS011;37038;50.182;8.624;2024-03-08T22:57:21;26.17;;;19.10;;
51010;SDS011;37038;50.182;8.624;2024-03-08T23:00:21;28.02;;;18.15;;
51010;SDS011;37038;50.182;8.624;2024-03-08T23:03:20;27.33;;;18.25;;
51010;SDS011;37038;50.182;8.624;2024-03-08T23:09:30;29.00;;;19.00;;
51010;SDS011;37038;50.182;8.624;2024-03-08T23:13:06;27.85;;;19.73;;
51010;SDS011;37038;50.182;8.624;2024-03-08T23:15:57;26.70;;;19.38;;
51010;SDS011;37038;50.182;8.624;2024-03-08T23:19:11;24.67;;;17.48;;
51010;SDS011;37038;50.182;8.624;2024-03-08T23:22:29;26.20;;;18.50;;
51010;SDS011;37038;50.182;8.624;2024-03-08T23:25:37;28.77;;;19.30;;
51010;SDS011;37038;50.182;8.624;2024-03-08T23:28:44;30.52;;;18.83;;
51010;SDS011;37038;50.182;8.624;2024-03-08T23:31:45;29.05;;;18.67;;
51010;SDS011;37038;50.182;8.624;2024-03-08T23:35:04;31.63;;;20.05;;
51010;SDS011;37038;50.182;8.624;2024-03-08T23:38:16;28.98;;;19.17;;
51010;SDS011;37038;50.182;8.624;2024-03-08T23:41:19;28.10;;;19.00;;
51010;SDS011;37038;50.182;8.624;2024-03-08T23:44:26;29.15;;;20.30;;
51010;SDS011;37038;50.182;8.624;2024-03-08T23:47:19;27.23;;;18.48;;
51010;SDS011;37038;50.182;8.624;2024-03-08T23:50:15;26.80;;;18.92;;
51010;SDS011;37038;50.182;8.624;2024-03-08T23:53:26;27.80;;;18.88;;
51010;SDS011;37038;50.182;8.624;2024-03-08T23:56:24;26.52;;;17.88;;
51010;SDS011;37038;50.182;8.624;2024-03-08T23:59:25;30.38;;;19.75;;
